Log in Register

Login to your account

Username *
Password *
Remember Me

Create an account

Fields marked with an asterisk (*) are required.
Name *
Username *
Password *
Verify password *
Email *
Verify email *

Please enter the email address associated with your User account. Your username will be emailed to the email address on file.

Nous contacter

 Téléphone : +33 (0)4 79 54 41 81

Coordonnées détaillées et accès : cliquez ici

 
LFLB °C
    Ferienhaus Ostsee
[source: ADDS]
METAR
LFLB 211100Z AUTO 36005KT 340V040 9999 OVC019 07/03 Q1009 NOSIG =
TAF LFLB 210500Z 2106/2206 VRB02KT 6000 BKN020 PROB40 2106/2108 3000 BR PROB40 TEMPO 2120/2124 4000 RA BKN014 SCT080TCU
TAF
TAF LFLB 210500Z 2106/2206 VRB02KT 6000 BKN020 PROB40 2106/2108 3000 BR PROB40 TEMPO 2120/2124 4000 RA BKN014 SCT080TCU =
SR / SS: 06:43 / 16:00 UTC (Lever/Coucher du soleil le 2019-11-21)
JSN Boot template designed by JoomlaShine.com